createdAt,value
2018-08-17T00:00:28.025Z,24.93
2018-08-17T00:02:56.500Z,27.80
2018-08-17T00:05:25.055Z,26.10
2018-08-17T00:07:53.470Z,27.17
2018-08-17T00:10:22.072Z,25.27
2018-08-17T00:12:50.623Z,23.13
2018-08-17T00:15:19.622Z,23.57
2018-08-17T00:17:48.117Z,21.47
2018-08-17T00:20:16.695Z,22.20
2018-08-17T00:22:45.337Z,20.53
2018-08-17T00:25:13.868Z,20.07
2018-08-17T00:27:42.533Z,19.07
2018-08-17T00:30:11.238Z,18.10
2018-08-17T00:32:39.732Z,16.73
2018-08-17T00:35:08.206Z,16.03
2018-08-17T00:37:36.772Z,15.07
2018-08-17T00:40:05.398Z,15.20
2018-08-17T00:42:33.996Z,13.80
2018-08-17T00:45:02.521Z,13.03
2018-08-17T00:47:31.104Z,13.87
2018-08-17T00:49:59.600Z,12.63
2018-08-17T00:52:28.174Z,12.77
2018-08-17T00:54:56.678Z,12.83
2018-08-17T00:57:25.159Z,11.27
2018-08-17T00:59:53.740Z,10.87
2018-08-17T01:02:22.329Z,10.23
2018-08-17T01:04:50.915Z,10.20
2018-08-17T01:07:19.488Z,10.20
2018-08-17T01:09:47.923Z,9.63
2018-08-17T01:12:16.453Z,9.90
2018-08-17T01:14:44.940Z,9.03
2018-08-17T01:17:13.417Z,8.93
2018-08-17T01:19:41.879Z,8.53
2018-08-17T01:22:10.369Z,7.80
2018-08-17T01:24:38.834Z,8.43
2018-08-17T01:27:07.262Z,7.87
2018-08-17T01:29:35.700Z,7.60
2018-08-17T01:32:04.325Z,7.30
2018-08-17T01:34:32.753Z,7.33
2018-08-17T01:37:01.243Z,7.50
2018-08-17T01:39:29.747Z,9.10
2018-08-17T01:41:58.264Z,10.03
2018-08-17T01:44:26.838Z,8.90
2018-08-17T01:46:55.384Z,9.97
2018-08-17T01:49:23.805Z,11.03
2018-08-17T01:51:52.361Z,11.47
2018-08-17T01:54:20.830Z,10.83
2018-08-17T01:56:49.317Z,10.90
2018-08-17T01:59:17.833Z,11.67
2018-08-17T02:01:46.381Z,11.23
2018-08-17T02:04:15.808Z,11.47
2018-08-17T02:06:44.392Z,11.17
2018-08-17T02:09:13.276Z,12.40
2018-08-17T02:11:46.732Z,11.73
2018-08-17T02:14:15.234Z,12.80
2018-08-17T02:16:43.725Z,13.30
2018-08-17T02:19:12.233Z,13.37
2018-08-17T02:21:40.905Z,13.10
2018-08-17T02:24:09.489Z,12.83
2018-08-17T02:26:37.978Z,14.37
2018-08-17T02:29:06.766Z,14.73
2018-08-17T02:31:35.344Z,13.60
2018-08-17T02:34:03.900Z,12.97
2018-08-17T02:36:32.398Z,12.93
2018-08-17T02:39:00.883Z,12.70
2018-08-17T02:41:29.461Z,12.67
2018-08-17T02:43:57.951Z,13.70
2018-08-17T02:46:26.521Z,17.30
2018-08-17T02:48:54.998Z,19.10
2018-08-17T02:51:23.535Z,20.83
2018-08-17T02:53:52.225Z,22.40
2018-08-17T02:56:20.751Z,23.93
2018-08-17T02:58:49.297Z,23.20
2018-08-17T03:01:17.839Z,25.00
2018-08-17T03:03:46.277Z,22.47
2018-08-17T03:06:14.700Z,23.97
2018-08-17T03:08:43.176Z,20.60
2018-08-17T03:11:11.638Z,23.83
2018-08-17T03:13:40.179Z,23.07
2018-08-17T03:16:08.738Z,21.37
2018-08-17T03:18:37.193Z,20.87
2018-08-17T03:21:05.823Z,19.00
2018-08-17T03:23:34.377Z,20.53
2018-08-17T03:26:02.824Z,20.83
2018-08-17T03:28:31.305Z,20.73
2018-08-17T03:30:59.755Z,18.87
2018-08-17T03:33:28.206Z,18.90
2018-08-17T03:35:56.652Z,17.47
2018-08-17T03:38:25.174Z,20.60
2018-08-17T03:40:53.794Z,17.70
2018-08-17T03:43:22.370Z,17.70
2018-08-17T03:45:50.949Z,17.93
2018-08-17T03:48:19.495Z,19.10
2018-08-17T03:50:48.070Z,20.17
2018-08-17T03:53:16.574Z,18.60
2018-08-17T03:55:45.056Z,16.80
2018-08-17T03:58:13.558Z,15.33
2018-08-17T04:00:42.118Z,18.70
2018-08-17T04:03:10.589Z,18.00
2018-08-17T04:05:39.049Z,18.03
2018-08-17T04:08:07.656Z,18.37
2018-08-17T04:10:36.135Z,20.77
2018-08-17T04:13:04.864Z,21.50
2018-08-17T04:15:33.563Z,23.87
2018-08-17T04:18:02.090Z,20.20
2018-08-17T04:20:30.694Z,21.90
2018-08-17T04:22:59.361Z,21.93
2018-08-17T04:25:27.842Z,21.13
2018-08-17T04:27:56.361Z,19.47
2018-08-17T04:30:24.922Z,19.90
2018-08-17T04:32:53.379Z,21.83
2018-08-17T04:35:21.916Z,19.23
2018-08-17T04:37:50.482Z,17.43
2018-08-17T04:40:19.102Z,19.07
2018-08-17T04:42:47.632Z,18.83
2018-08-17T04:45:16.128Z,18.13
2018-08-17T04:47:44.706Z,16.80
2018-08-17T04:50:13.175Z,14.13
2018-08-17T04:52:41.578Z,18.00
2018-08-17T04:55:10.198Z,17.93
2018-08-17T04:57:38.885Z,16.03
2018-08-17T05:00:08.714Z,15.97
2018-08-17T05:02:37.531Z,16.07
2018-08-17T05:05:06.943Z,17.57
2018-08-17T05:07:35.625Z,16.13
2018-08-17T05:10:04.644Z,16.57
2018-08-17T05:12:36.390Z,16.47
2018-08-17T05:15:05.303Z,15.30
2018-08-17T05:17:33.962Z,16.00
2018-08-17T05:20:02.449Z,15.80
2018-08-17T05:22:30.889Z,17.50
2018-08-17T05:24:59.383Z,17.40
2018-08-17T05:27:27.876Z,16.40
2018-08-17T05:29:56.414Z,17.43
2018-08-17T05:32:24.982Z,16.47
2018-08-17T05:34:53.534Z,17.07
2018-08-17T05:37:22.101Z,17.53
2018-08-17T05:39:50.621Z,16.70
2018-08-17T05:42:19.271Z,17.33
2018-08-17T05:44:47.804Z,18.43
2018-08-17T05:47:16.486Z,18.17
2018-08-17T05:49:45.026Z,18.13
2018-08-17T05:52:13.519Z,18.90
2018-08-17T05:54:42.043Z,18.80
2018-08-17T05:57:10.598Z,17.13
2018-08-17T05:59:39.176Z,18.87
2018-08-17T06:02:07.805Z,17.70
2018-08-17T06:04:36.322Z,16.93
2018-08-17T06:07:04.914Z,17.77
2018-08-17T06:09:33.386Z,17.47
2018-08-17T06:12:02.036Z,17.93
2018-08-17T06:14:30.656Z,16.77
2018-08-17T06:17:01.212Z,16.57
2018-08-17T06:19:29.826Z,16.80
2018-08-17T06:21:58.281Z,15.27
2018-08-17T06:24:26.733Z,15.07
2018-08-17T06:26:55.289Z,14.87
2018-08-17T06:29:23.874Z,13.53
2018-08-17T06:31:52.409Z,15.40
2018-08-17T06:34:20.890Z,15.63
2018-08-17T06:36:49.374Z,15.70
2018-08-17T06:39:17.863Z,15.47
2018-08-17T06:41:46.408Z,14.80
2018-08-17T06:44:15.003Z,13.50
2018-08-17T06:46:43.504Z,14.53
2018-08-17T06:49:12.012Z,15.93
2018-08-17T06:51:40.484Z,16.77
2018-08-17T06:54:09.025Z,16.73
2018-08-17T06:56:37.529Z,17.93
2018-08-17T06:59:06.353Z,16.87
2018-08-17T07:01:34.909Z,17.47
2018-08-17T07:04:03.513Z,17.70
2018-08-17T07:06:32.082Z,17.97
2018-08-17T07:09:00.616Z,13.83
2018-08-17T07:11:29.177Z,14.97
2018-08-17T07:13:57.753Z,13.17
2018-08-17T07:16:26.329Z,10.93
2018-08-17T07:18:54.940Z,10.17
2018-08-17T07:21:23.467Z,10.73
2018-08-17T07:23:51.970Z,10.90
2018-08-17T07:26:20.690Z,10.87
2018-08-17T07:28:49.122Z,12.07
2018-08-17T07:31:17.623Z,12.43
2018-08-17T07:33:46.076Z,11.67
2018-08-17T07:36:14.711Z,12.97
2018-08-17T07:39:00.837Z,13.97
2018-08-17T07:41:29.470Z,14.37
2018-08-17T07:43:57.933Z,14.67
2018-08-17T07:46:26.381Z,14.10
2018-08-17T07:48:54.935Z,16.30
2018-08-17T07:51:23.491Z,15.73
2018-08-17T07:53:52.114Z,18.30
2018-08-17T07:56:20.679Z,19.13
2018-08-17T07:58:49.344Z,20.33
2018-08-17T08:01:17.811Z,22.13
2018-08-17T08:03:46.389Z,21.33
2018-08-17T08:06:14.973Z,22.83
2018-08-17T08:08:43.456Z,23.60
2018-08-17T08:11:11.995Z,23.93
2018-08-17T08:13:40.626Z,20.40
2018-08-17T08:16:09.101Z,17.93
2018-08-17T08:18:47.766Z,15.97
2018-08-17T08:21:16.318Z,14.37
2018-08-17T08:23:44.933Z,14.00
2018-08-17T08:26:13.524Z,14.03
2018-08-17T08:28:47.711Z,12.23
2018-08-17T08:31:16.299Z,12.33
2018-08-17T08:33:44.768Z,14.43
2018-08-17T08:36:13.281Z,12.97
2018-08-17T08:38:41.864Z,13.57
2018-08-17T08:41:10.372Z,13.20
2018-08-17T08:43:38.914Z,14.10
2018-08-17T08:46:07.488Z,15.17
2018-08-17T08:48:36.072Z,14.50
2018-08-17T08:51:04.563Z,14.83
2018-08-17T08:53:33.035Z,14.97
2018-08-17T08:56:01.799Z,15.27
2018-08-17T08:58:30.328Z,15.53
2018-08-17T09:00:58.892Z,16.23
2018-08-17T09:03:27.367Z,16.43
2018-08-17T09:05:55.857Z,16.73
2018-08-17T09:08:24.454Z,17.47
2018-08-17T09:10:53.075Z,17.80
2018-08-17T09:13:21.651Z,17.33
2018-08-17T09:15:50.278Z,17.43
2018-08-17T09:18:18.883Z,19.13
2018-08-17T09:20:47.651Z,19.17
2018-08-17T09:23:16.149Z,21.20
2018-08-17T09:25:44.805Z,21.10
2018-08-17T09:28:22.243Z,20.03
2018-08-17T09:30:50.804Z,19.20
2018-08-17T09:33:19.314Z,22.33
2018-08-17T09:35:47.872Z,20.73
2018-08-17T09:38:16.369Z,20.57
2018-08-17T09:40:44.866Z,21.73
2018-08-17T09:43:13.315Z,19.70
2018-08-17T09:45:41.903Z,21.17
2018-08-17T09:48:10.516Z,20.23
2018-08-17T09:50:39.071Z,18.93
2018-08-17T09:53:07.660Z,16.97
2018-08-17T09:55:36.227Z,17.30
2018-08-17T09:58:04.716Z,18.07
2018-08-17T10:00:39.108Z,18.57
2018-08-17T10:03:08.692Z,16.73
2018-08-17T10:05:40.333Z,15.97
2018-08-17T10:08:14.097Z,16.60
2018-08-17T10:10:43.377Z,16.53
2018-08-17T10:13:11.980Z,17.73
2018-08-17T10:15:40.622Z,15.23
2018-08-17T10:18:09.615Z,17.00
2018-08-17T10:20:38.115Z,15.67
2018-08-17T10:23:16.313Z,15.90
2018-08-17T10:25:44.877Z,15.77
2018-08-17T10:28:13.429Z,12.53
2018-08-17T10:30:41.897Z,11.00
2018-08-17T10:33:10.434Z,11.03
2018-08-17T10:35:39.093Z,9.83
2018-08-17T10:38:08.380Z,11.00
2018-08-17T10:40:37.029Z,10.70
2018-08-17T10:43:07.086Z,11.87
2018-08-17T10:45:35.600Z,11.33
2018-08-17T10:48:04.351Z,10.40
2018-08-17T10:50:34.691Z,10.80
2018-08-17T10:53:04.427Z,10.83
2018-08-17T10:55:42.738Z,10.63
2018-08-17T10:58:14.918Z,7.90
2018-08-17T11:00:43.434Z,8.40
2018-08-17T11:03:12.112Z,6.33
2018-08-17T11:05:40.723Z,8.67
2018-08-17T11:08:17.178Z,7.83
2018-08-17T11:10:45.675Z,7.93
2018-08-17T11:13:14.170Z,7.17
2018-08-17T11:15:42.758Z,7.10
2018-08-17T11:18:11.406Z,6.37
2018-08-17T11:20:39.911Z,6.87
2018-08-17T11:23:08.373Z,6.60
2018-08-17T11:25:36.868Z,6.80
2018-08-17T11:28:05.464Z,5.23
2018-08-17T11:30:33.941Z,5.53
2018-08-17T11:33:02.516Z,5.13
2018-08-17T11:35:31.124Z,5.80
2018-08-17T11:37:59.636Z,4.90
2018-08-17T11:40:28.192Z,5.30
2018-08-17T11:42:56.859Z,4.80
2018-08-17T11:45:26.457Z,4.57
2018-08-17T11:47:55.900Z,3.77
2018-08-17T11:50:25.446Z,4.80
2018-08-17T11:52:55.184Z,4.50
2018-08-17T11:55:24.904Z,4.30
2018-08-17T11:57:53.490Z,4.00
2018-08-17T12:00:22.210Z,4.13
2018-08-17T12:02:50.741Z,3.70
2018-08-17T12:05:19.416Z,3.67
2018-08-17T12:07:48.442Z,3.70
2018-08-17T12:10:17.013Z,3.27
2018-08-17T12:13:08.789Z,3.97
2018-08-17T12:15:42.314Z,3.10
2018-08-17T12:18:11.267Z,3.73
2018-08-17T12:20:39.896Z,3.10
2018-08-17T12:23:08.431Z,3.70
2018-08-17T12:25:43.702Z,3.40
2018-08-17T12:28:36.897Z,3.00
2018-08-17T12:31:05.644Z,2.67
2018-08-17T12:33:34.210Z,2.70
2018-08-17T12:36:02.732Z,2.40
2018-08-17T12:38:31.229Z,2.70
2018-08-17T12:40:59.775Z,2.70
2018-08-17T12:43:33.618Z,2.23
2018-08-17T12:46:02.189Z,2.50
2018-08-17T12:48:30.673Z,2.87
2018-08-17T12:51:06.392Z,3.30
2018-08-17T12:53:34.913Z,2.50
2018-08-17T12:56:03.430Z,2.63
2018-08-17T12:58:51.657Z,2.40
2018-08-17T13:01:20.138Z,2.60
2018-08-17T13:03:48.706Z,2.30
2018-08-17T13:06:38.212Z,3.00
2018-08-17T13:09:07.590Z,2.60
2018-08-17T13:11:42.043Z,2.33
2018-08-17T13:14:12.637Z,2.77
2018-08-17T13:16:42.668Z,2.40
2018-08-17T13:19:11.154Z,2.20
2018-08-17T13:21:39.624Z,2.47
2018-08-17T13:24:08.522Z,2.90
2018-08-17T13:26:37.122Z,3.20
2018-08-17T13:29:05.808Z,3.07
2018-08-17T13:31:34.464Z,2.70
2018-08-17T13:34:02.971Z,3.30
2018-08-17T13:36:31.675Z,2.60
2018-08-17T13:39:00.328Z,2.73
2018-08-17T13:41:28.883Z,2.60
2018-08-17T13:43:57.372Z,2.33
2018-08-17T13:46:26.049Z,3.00
2018-08-17T13:48:55.137Z,2.67
2018-08-17T13:51:23.608Z,2.80
2018-08-17T13:53:52.164Z,2.27
2018-08-17T13:56:20.738Z,2.97
2018-08-17T13:58:49.295Z,2.50
2018-08-17T14:01:17.765Z,3.37
2018-08-17T14:03:46.374Z,2.70
2018-08-17T14:06:14.890Z,2.50
2018-08-17T14:08:43.418Z,2.00
2018-08-17T14:11:12.119Z,2.60
2018-08-17T14:13:40.983Z,2.00
2018-08-17T14:16:09.734Z,2.40
2018-08-17T14:18:46.903Z,2.20
2018-08-17T14:21:15.422Z,2.60
2018-08-17T14:23:43.938Z,2.30
2018-08-17T14:26:12.796Z,2.10
2018-08-17T14:28:42.418Z,2.10
2018-08-17T14:31:10.919Z,2.17
2018-08-17T14:33:39.541Z,2.40
2018-08-17T14:36:08.611Z,2.27
2018-08-17T14:38:37.737Z,2.00
2018-08-17T14:41:06.545Z,2.60
2018-08-17T14:43:35.268Z,2.43
2018-08-17T14:46:03.770Z,2.13
2018-08-17T14:48:32.522Z,2.30
2018-08-17T14:51:01.111Z,2.37
2018-08-17T14:53:29.596Z,2.83
2018-08-17T14:55:58.093Z,2.47
2018-08-17T14:58:26.560Z,2.80
2018-08-17T15:00:55.162Z,2.20
2018-08-17T15:03:45.746Z,2.60
2018-08-17T15:06:14.437Z,2.30
2018-08-17T15:08:42.894Z,2.37
2018-08-17T15:11:11.377Z,2.50
2018-08-17T15:13:40.081Z,2.40
2018-08-17T15:16:09.736Z,2.17
2018-08-17T15:18:38.252Z,2.57
2018-08-17T15:21:07.004Z,2.57
2018-08-17T15:23:35.534Z,3.03
2018-08-17T15:26:04.149Z,2.17
2018-08-17T15:28:32.686Z,2.07
2018-08-17T15:31:01.207Z,2.83
2018-08-17T15:33:29.912Z,2.90
2018-08-17T15:35:58.534Z,2.50
2018-08-17T15:38:27.016Z,2.73
2018-08-17T15:40:55.524Z,2.27
2018-08-17T15:43:24.035Z,3.40
2018-08-17T15:45:52.606Z,3.43
2018-08-17T15:48:21.169Z,2.67
2018-08-17T15:50:49.609Z,3.30
2018-08-17T15:53:18.109Z,2.60
2018-08-17T15:55:46.670Z,3.20
2018-08-17T15:58:15.437Z,2.70
2018-08-17T16:00:44.069Z,3.13
2018-08-17T16:03:12.600Z,2.90
2018-08-17T16:05:41.245Z,2.73
2018-08-17T16:08:09.932Z,2.53
2018-08-17T16:10:38.547Z,3.50
2018-08-17T16:13:07.085Z,2.90
2018-08-17T16:15:35.620Z,3.80
2018-08-17T16:18:04.188Z,2.40
2018-08-17T16:20:32.662Z,3.10
2018-08-17T16:23:01.257Z,2.93
2018-08-17T16:25:29.812Z,2.43
2018-08-17T16:27:58.467Z,2.97
2018-08-17T16:30:26.920Z,2.40
2018-08-17T16:32:55.456Z,3.40
2018-08-17T16:35:24.026Z,2.50
2018-08-17T16:37:52.532Z,2.87
2018-08-17T16:40:20.982Z,2.57
2018-08-17T16:42:51.350Z,2.70
2018-08-17T16:45:36.404Z,3.87
2018-08-17T16:48:05.397Z,2.90
2018-08-17T16:50:33.921Z,2.63
2018-08-17T16:53:02.498Z,3.30
2018-08-17T16:55:31.041Z,2.87
2018-08-17T16:57:59.565Z,3.27
2018-08-17T17:00:28.253Z,3.53
2018-08-17T17:02:56.674Z,3.10
2018-08-17T17:05:25.158Z,3.50
2018-08-17T17:07:53.692Z,3.30
2018-08-17T17:10:23.532Z,3.57
2018-08-17T17:12:52.048Z,3.37
2018-08-17T17:15:20.673Z,4.87
2018-08-17T17:17:57.085Z,3.57
2018-08-17T17:20:26.472Z,4.47
2018-08-17T17:22:55.090Z,4.50
2018-08-17T17:25:23.621Z,4.33
2018-08-17T17:27:52.161Z,3.77
2018-08-17T17:30:20.621Z,4.50
2018-08-17T17:32:49.253Z,3.13
2018-08-17T17:35:17.800Z,4.00
2018-08-17T17:37:46.300Z,3.30
2018-08-17T17:40:14.884Z,4.40
2018-08-17T17:42:43.354Z,4.87
2018-08-17T17:45:11.937Z,4.07
2018-08-17T17:47:40.468Z,5.70
2018-08-17T17:50:09.017Z,4.23
2018-08-17T17:52:37.476Z,4.60
2018-08-17T17:55:05.941Z,4.27
2018-08-17T17:57:34.538Z,3.73
2018-08-17T18:00:03.192Z,4.20
2018-08-17T18:02:31.754Z,3.70
2018-08-17T18:05:01.259Z,4.03
2018-08-17T18:07:39.342Z,3.63
2018-08-17T18:10:08.342Z,4.10
2018-08-17T18:12:54.628Z,4.30
2018-08-17T18:15:23.207Z,4.50
2018-08-17T18:17:51.796Z,4.80
2018-08-17T18:21:07.589Z,4.03
2018-08-17T18:23:36.056Z,4.47
2018-08-17T18:26:09.556Z,4.27
2018-08-17T18:28:38.163Z,4.93
2018-08-17T18:31:09.884Z,4.47
2018-08-17T18:33:38.440Z,4.57
2018-08-17T18:36:07.015Z,4.13
2018-08-17T18:38:35.539Z,4.33
2018-08-17T18:41:04.293Z,4.53
2018-08-17T18:43:32.772Z,4.53
2018-08-17T18:46:01.211Z,4.80
2018-08-17T18:48:30.089Z,4.97
2018-08-17T18:50:58.662Z,4.50
2018-08-17T18:53:27.160Z,5.30
2018-08-17T18:55:55.990Z,5.40
2018-08-17T18:58:24.541Z,5.20
2018-08-17T19:00:53.413Z,5.60
2018-08-17T19:03:21.897Z,5.27
2018-08-17T19:05:50.612Z,5.10
2018-08-17T19:08:19.777Z,5.70
2018-08-17T19:10:48.492Z,5.30
2018-08-17T19:13:17.302Z,5.70
2018-08-17T19:15:50.354Z,6.27
2018-08-17T19:18:19.539Z,6.23
2018-08-17T19:20:48.330Z,6.50
2018-08-17T19:23:17.256Z,5.87
2018-08-17T19:25:46.143Z,6.10
2018-08-17T19:28:14.845Z,6.77
2018-08-17T19:30:50.972Z,6.60
2018-08-17T19:33:19.964Z,6.67
2018-08-17T19:35:49.346Z,7.23
2018-08-17T19:38:18.112Z,7.00
2018-08-17T19:40:46.731Z,7.40
2018-08-17T19:43:15.523Z,7.10
2018-08-17T19:45:44.211Z,6.27
2018-08-17T19:48:30.449Z,6.83
2018-08-17T19:50:59.053Z,7.00
2018-08-17T19:53:27.841Z,6.50
2018-08-17T19:55:56.400Z,7.83
2018-08-17T19:58:25.396Z,7.40
2018-08-17T20:00:53.992Z,7.03
2018-08-17T20:03:22.954Z,7.07
2018-08-17T20:05:51.570Z,7.90
2018-08-17T20:08:20.283Z,6.07
2018-08-17T20:10:48.979Z,6.80
2018-08-17T20:13:17.561Z,7.63
2018-08-17T20:15:46.251Z,7.30
2018-08-17T20:18:14.744Z,7.87
2018-08-17T20:20:43.589Z,8.57
2018-08-17T20:23:12.149Z,7.63
2018-08-17T20:25:41.031Z,7.37
2018-08-17T20:28:09.574Z,6.93
2018-08-17T20:30:38.241Z,7.17
2018-08-17T20:33:15.976Z,8.27
2018-08-17T20:35:44.629Z,8.57
2018-08-17T20:38:13.358Z,7.30
2018-08-17T20:40:42.050Z,6.30
2018-08-17T20:43:10.762Z,7.47
2018-08-17T20:45:39.343Z,6.17
2018-08-17T20:48:08.145Z,6.30
2018-08-17T20:50:36.794Z,5.97
2018-08-17T20:53:05.530Z,6.73
2018-08-17T20:55:34.407Z,6.33
2018-08-17T20:58:38.271Z,6.50
2018-08-17T21:01:06.904Z,6.73
2018-08-17T21:03:35.506Z,6.00
2018-08-17T21:06:04.242Z,6.23
2018-08-17T21:08:32.844Z,7.07
2018-08-17T21:11:01.453Z,6.40
2018-08-17T21:13:30.217Z,6.77
2018-08-17T21:15:58.884Z,7.47
2018-08-17T21:18:27.512Z,6.40
2018-08-17T21:20:56.085Z,6.23
2018-08-17T21:23:24.595Z,7.40
2018-08-17T21:25:53.148Z,6.60
2018-08-17T21:28:21.775Z,7.00
2018-08-17T21:30:50.334Z,7.27
2018-08-17T21:33:19.642Z,7.23
2018-08-17T21:35:48.911Z,7.07
2018-08-17T21:38:17.550Z,8.10
2018-08-17T21:40:46.079Z,7.83
2018-08-17T21:43:14.639Z,7.33
2018-08-17T21:45:46.279Z,8.03
2018-08-17T21:48:19.170Z,7.80
2018-08-17T21:50:48.055Z,7.00
2018-08-17T21:53:16.573Z,7.90
2018-08-17T21:55:45.295Z,7.40
2018-08-17T21:58:14.665Z,7.37
2018-08-17T22:01:06.130Z,7.43
2018-08-17T22:03:36.981Z,8.23
2018-08-17T22:06:05.659Z,7.33
2018-08-17T22:08:34.297Z,8.20
2018-08-17T22:11:02.906Z,8.20
2018-08-17T22:13:36.806Z,7.37
2018-08-17T22:16:05.520Z,7.77
2018-08-17T22:18:34.117Z,7.67
2018-08-17T22:21:02.753Z,8.37
2018-08-17T22:23:31.758Z,8.00
2018-08-17T22:26:00.343Z,8.17
2018-08-17T22:28:28.996Z,8.47
2018-08-17T22:30:57.596Z,8.03
2018-08-17T22:33:26.382Z,8.50
2018-08-17T22:35:54.932Z,8.20
2018-08-17T22:38:23.952Z,7.90
2018-08-17T22:40:52.553Z,7.40
2018-08-17T22:43:21.215Z,8.80
2018-08-17T22:45:49.819Z,9.83
2018-08-17T22:48:50.948Z,8.00
2018-08-17T22:51:19.442Z,9.10
2018-08-17T22:53:48.225Z,7.40
2018-08-17T22:56:16.724Z,9.00
2018-08-17T22:58:48.257Z,9.10
2018-08-17T23:01:17.973Z,9.27
2018-08-17T23:03:53.818Z,7.80
2018-08-17T23:06:23.659Z,8.70
2018-08-17T23:08:52.239Z,8.17
2018-08-17T23:11:29.246Z,8.27
2018-08-17T23:14:00.475Z,8.23
2018-08-17T23:16:29.034Z,8.13
2018-08-17T23:18:57.597Z,8.23
2018-08-17T23:24:47.626Z,6.90
2018-08-17T23:27:16.229Z,8.37
2018-08-17T23:29:44.781Z,9.10
2018-08-17T23:32:13.307Z,8.67
2018-08-17T23:34:41.845Z,8.47
2018-08-17T23:37:10.504Z,8.03
2018-08-17T23:39:39.022Z,8.53
2018-08-17T23:42:07.718Z,7.30
2018-08-17T23:44:36.250Z,7.27
2018-08-17T23:47:05.110Z,9.13
2018-08-17T23:49:33.661Z,9.77
2018-08-17T23:52:02.146Z,8.60
2018-08-17T23:54:30.638Z,7.83
2018-08-17T23:56:59.216Z,7.23
2018-08-17T23:59:28.004Z,7.90
